createdAt,value
2018-04-25T00:00:54.181Z,7.47
2018-04-25T00:03:23.119Z,6.80
2018-04-25T00:05:51.355Z,6.90
2018-04-25T00:08:19.695Z,7.10
2018-04-25T00:10:47.962Z,6.50
2018-04-25T00:13:16.240Z,6.03
2018-04-25T00:15:44.456Z,5.77
2018-04-25T00:18:12.644Z,7.40
2018-04-25T00:20:41.594Z,11.43
2018-04-25T00:26:09.973Z,6.10
2018-04-25T00:28:38.158Z,6.73
2018-04-25T00:31:06.342Z,6.90
2018-04-25T00:33:34.559Z,13.40
2018-04-25T00:36:03.512Z,12.40
2018-04-25T00:38:31.701Z,11.27
2018-04-25T00:40:59.966Z,9.67
2018-04-25T00:43:28.236Z,11.80
2018-04-25T00:45:56.530Z,9.10
2018-04-25T00:48:24.736Z,6.23
2018-04-25T00:53:53.774Z,7.50
2018-04-25T00:56:21.962Z,6.50
2018-04-25T00:58:50.144Z,6.20
2018-04-25T01:01:18.367Z,5.40
2018-04-25T01:03:46.555Z,5.93
2018-04-25T01:06:27.678Z,5.70
2018-04-25T01:09:24.526Z,8.60
2018-04-25T01:11:53.748Z,7.30
2018-04-25T01:14:22.606Z,7.20
2018-04-25T01:16:50.890Z,6.20
2018-04-25T01:19:29.290Z,8.80
2018-04-25T01:21:57.475Z,9.33
2018-04-25T01:24:27.194Z,7.87
2018-04-25T01:26:55.472Z,6.30
2018-04-25T01:29:23.649Z,5.90
2018-04-25T01:31:52.693Z,16.37
2018-04-25T01:47:48.738Z,7.60
2018-04-25T01:50:27.915Z,6.57
2018-04-25T01:53:14.082Z,6.90
2018-04-25T01:56:00.868Z,13.27
2018-04-25T01:58:47.061Z,8.07
2018-04-25T02:01:20.426Z,10.53
2018-04-25T02:06:49.378Z,8.73
2018-04-25T02:09:17.560Z,8.63
2018-04-25T02:11:45.825Z,8.13
2018-04-25T02:14:27.168Z,13.87
2018-04-25T02:16:55.386Z,7.37
2018-04-25T02:19:23.663Z,11.37
2018-04-25T02:21:51.888Z,17.23
2018-04-25T02:24:20.076Z,7.00
2018-04-25T02:26:48.268Z,8.07
2018-04-25T02:29:26.794Z,11.50
2018-04-25T02:31:55.744Z,7.83
2018-04-25T02:34:23.920Z,12.93
2018-04-25T02:36:52.240Z,7.57
2018-04-25T02:39:20.518Z,11.57
2018-04-25T02:41:48.707Z,13.30
2018-04-25T02:44:17.675Z,7.57
2018-04-25T02:46:45.955Z,7.93
2018-04-25T02:49:14.135Z,7.60
2018-04-25T02:51:43.214Z,13.90
2018-04-25T02:54:13.114Z,6.73
2018-04-25T02:56:41.295Z,10.47
2018-04-25T02:59:09.585Z,17.23
2018-04-25T03:01:39.282Z,12.47
2018-04-25T03:04:07.458Z,11.73
2018-04-25T03:06:35.675Z,7.60
2018-04-25T03:09:03.851Z,12.20
2018-04-25T03:11:32.087Z,10.70
2018-04-25T03:16:45.963Z,8.93
2018-04-25T03:19:14.170Z,7.67
2018-04-25T03:21:42.338Z,10.07
2018-04-25T03:24:25.996Z,14.27
2018-04-25T03:26:54.507Z,12.00
2018-04-25T03:29:27.351Z,17.37
2018-04-25T03:31:55.536Z,10.83
2018-04-25T03:34:23.716Z,9.63
2018-04-25T03:36:52.078Z,13.33
2018-04-25T03:39:20.255Z,9.23
2018-04-25T03:41:49.482Z,13.37
2018-04-25T03:44:18.459Z,7.33
2018-04-25T03:46:46.651Z,11.43
2018-04-25T03:49:15.191Z,8.57
2018-04-25T03:54:44.598Z,15.47
2018-04-25T03:57:26.238Z,11.20
2018-04-25T03:59:56.049Z,13.90
2018-04-25T04:02:25.082Z,12.90
2018-04-25T04:04:53.265Z,16.70
2018-04-25T04:07:21.482Z,16.37
2018-04-25T04:09:49.676Z,11.53
2018-04-25T04:12:17.949Z,9.10
2018-04-25T04:14:46.222Z,16.60
2018-04-25T04:17:15.156Z,14.30
2018-04-25T04:19:43.333Z,10.93
2018-04-25T04:22:11.543Z,16.70
2018-04-25T04:28:10.733Z,18.27
2018-04-25T04:30:38.977Z,18.37
2018-04-25T04:33:07.930Z,16.10
2018-04-25T04:35:36.121Z,7.13
2018-04-25T04:38:05.061Z,10.00
2018-04-25T04:40:33.242Z,13.73
2018-04-25T04:43:01.567Z,15.20
2018-04-25T04:45:29.815Z,16.10
2018-04-25T04:47:57.998Z,8.83
2018-04-25T04:50:26.244Z,18.33
2018-04-25T04:55:55.187Z,17.60
2018-04-25T04:58:23.354Z,12.13
2018-04-25T05:00:51.656Z,16.43
2018-04-25T05:03:26.391Z,10.07
2018-04-25T05:05:55.374Z,12.97
2018-04-25T05:08:24.396Z,10.50
2018-04-25T05:10:53.363Z,9.63
2018-04-25T05:13:22.318Z,9.67
2018-04-25T05:15:50.499Z,11.60
2018-04-25T05:18:18.837Z,13.40
2018-04-25T05:20:47.039Z,7.60
2018-04-25T05:23:15.233Z,9.97
2018-04-25T05:25:43.609Z,11.80
2018-04-25T05:28:13.326Z,15.50
2018-04-25T05:30:41.516Z,18.03
2018-04-25T05:33:10.501Z,11.43
2018-04-25T05:35:39.482Z,13.67
2018-04-25T05:38:07.769Z,13.37
2018-04-25T05:40:36.767Z,10.77
2018-04-25T05:43:05.745Z,12.90
2018-04-25T05:45:33.926Z,14.73
2018-04-25T05:48:02.922Z,17.17
2018-04-25T05:50:31.907Z,15.87
2018-04-25T05:53:00.170Z,20.30
2018-04-25T05:55:29.982Z,14.90
2018-04-25T05:57:58.287Z,16.33
2018-04-25T06:00:27.255Z,13.33
2018-04-25T06:02:55.725Z,13.27
2018-04-25T06:05:24.007Z,15.00
2018-04-25T06:07:52.186Z,13.37
2018-04-25T06:10:20.523Z,10.40
2018-04-25T06:12:48.736Z,10.23
2018-04-25T06:15:16.915Z,10.70
2018-04-25T06:17:46.069Z,14.33
2018-04-25T06:20:14.290Z,14.70
2018-04-25T06:22:43.242Z,11.10
2018-04-25T06:28:26.870Z,17.00
2018-04-25T06:35:29.199Z,9.43
2018-04-25T06:37:57.494Z,9.57
2018-04-25T06:40:26.495Z,14.53
2018-04-25T06:42:54.679Z,12.23
2018-04-25T06:45:26.834Z,11.30
2018-04-25T06:48:25.666Z,10.13
2018-04-25T06:57:25.482Z,10.37
2018-04-25T07:03:25.093Z,10.97
2018-04-25T07:05:53.283Z,8.53
2018-04-25T07:11:23.118Z,14.13
2018-04-25T07:38:25.296Z,6.90
2018-04-25T07:41:00.179Z,8.90
2018-04-25T07:43:29.171Z,6.63
2018-04-25T07:46:24.982Z,13.03
2018-04-25T08:01:25.114Z,7.27
2018-04-25T08:07:24.842Z,9.70
2018-04-25T08:16:25.115Z,7.93
2018-04-25T08:21:53.383Z,7.93
2018-04-25T08:30:26.422Z,10.97
2018-04-25T08:33:26.064Z,8.23
2018-04-25T08:39:24.843Z,7.10
2018-04-25T08:41:54.230Z,10.13
2018-04-25T08:44:22.463Z,7.33
2018-04-25T08:46:50.678Z,9.53
2018-04-25T08:49:18.860Z,7.97
2018-04-25T08:51:47.823Z,8.40
2018-04-25T08:54:16.072Z,8.60
2018-04-25T08:56:44.259Z,8.10
2018-04-25T08:59:12.441Z,9.10
2018-04-25T09:01:40.694Z,13.27
2018-04-25T09:04:28.432Z,10.00
2018-04-25T09:06:56.634Z,8.10
2018-04-25T09:09:25.657Z,11.47
2018-04-25T09:11:54.632Z,7.70
2018-04-25T09:14:22.917Z,7.40
2018-04-25T09:19:52.943Z,6.73
2018-04-25T09:22:21.279Z,6.23
2018-04-25T09:24:49.555Z,6.37
2018-04-25T09:27:17.806Z,8.53
2018-04-25T09:29:46.004Z,6.63
2018-04-25T09:32:27.567Z,7.47
2018-04-25T09:35:02.707Z,7.43
2018-04-25T09:37:31.670Z,8.87
2018-04-25T09:40:00.611Z,7.97
2018-04-25T09:42:28.785Z,10.30
2018-04-25T09:44:57.007Z,8.87
2018-04-25T09:47:26.180Z,6.50
2018-04-25T09:49:54.444Z,5.53
2018-04-25T09:52:22.747Z,7.00
2018-04-25T09:54:51.036Z,11.03
2018-04-25T09:57:19.982Z,6.93
2018-04-25T09:59:48.306Z,7.80
2018-04-25T10:02:23.002Z,8.93
2018-04-25T10:04:51.214Z,9.80
2018-04-25T10:07:20.176Z,16.23
2018-04-25T10:09:48.459Z,6.00
2018-04-25T10:12:27.183Z,6.00
2018-04-25T10:14:55.452Z,6.00
2018-04-25T10:17:23.823Z,10.03
2018-04-25T10:19:51.975Z,4.90
2018-04-25T10:22:20.151Z,9.87
2018-04-25T10:24:48.357Z,6.10
2018-04-25T10:27:27.078Z,7.97
2018-04-25T10:29:55.262Z,10.23
2018-04-25T10:32:24.948Z,10.20
2018-04-25T10:34:56.177Z,9.63
2018-04-25T10:37:24.358Z,10.50
2018-04-25T10:39:52.601Z,13.40
2018-04-25T10:42:20.826Z,19.10
2018-04-25T10:44:55.142Z,10.30
2018-04-25T10:47:23.417Z,13.70
2018-04-25T10:49:51.611Z,8.10
2018-04-25T10:52:20.594Z,8.17
2018-04-25T10:54:50.281Z,7.23
2018-04-25T10:57:18.562Z,7.60
2018-04-25T10:59:46.724Z,7.13
2018-04-25T11:02:14.910Z,7.57
2018-04-25T11:04:43.150Z,12.43
2018-04-25T11:07:30.326Z,9.27
2018-04-25T11:09:59.393Z,8.13
2018-04-25T11:12:27.645Z,6.53
2018-04-25T11:14:55.920Z,7.30
2018-04-25T11:17:24.230Z,13.73
2018-04-25T11:19:53.317Z,8.33
2018-04-25T11:22:21.493Z,7.40
2018-04-25T11:27:50.650Z,7.93
2018-04-25T11:30:18.956Z,8.43
2018-04-25T11:32:47.133Z,6.27
2018-04-25T11:35:28.304Z,6.30
2018-04-25T11:37:56.515Z,7.00
2018-04-25T11:40:25.453Z,12.00
2018-04-25T11:42:53.662Z,6.97
2018-04-25T11:45:21.842Z,11.57
2018-04-25T11:47:50.084Z,6.53
2018-04-25T11:50:28.226Z,5.60
2018-04-25T11:53:26.740Z,8.90
2018-04-25T11:55:55.726Z,9.00
2018-04-25T11:58:23.898Z,8.93
2018-04-25T12:00:52.176Z,10.20
2018-04-25T12:03:20.347Z,9.53
2018-04-25T12:05:48.638Z,8.50
2018-04-25T12:08:17.612Z,6.10
2018-04-25T12:10:45.887Z,6.00
2018-04-25T12:13:26.985Z,7.90
2018-04-25T12:19:11.504Z,7.57
2018-04-25T12:21:39.905Z,8.37
2018-04-25T12:24:08.149Z,5.90
2018-04-25T12:26:36.357Z,8.53
2018-04-25T12:29:26.038Z,7.70
2018-04-25T12:34:55.529Z,7.33
2018-04-25T12:37:23.833Z,9.93
2018-04-25T12:39:52.044Z,9.80
2018-04-25T12:42:27.408Z,7.63
2018-04-25T12:44:55.582Z,7.70
2018-04-25T12:47:23.788Z,6.17
2018-04-25T12:49:52.069Z,9.70
2018-04-25T12:52:20.350Z,6.80
2018-04-25T12:54:48.552Z,7.33
2018-04-25T12:57:17.693Z,7.13
2018-04-25T12:59:45.864Z,7.10
2018-04-25T13:02:14.042Z,6.90
2018-04-25T13:04:42.314Z,14.03
2018-04-25T13:07:10.524Z,10.03
2018-04-25T13:09:39.497Z,8.60
2018-04-25T13:12:07.695Z,7.77
2018-04-25T13:14:35.990Z,8.67
2018-04-25T13:17:04.917Z,9.30
2018-04-25T13:19:33.102Z,9.63
2018-04-25T13:22:01.332Z,7.70
2018-04-25T13:24:31.010Z,8.93
2018-04-25T13:27:25.790Z,7.33
2018-04-25T13:29:54.153Z,6.70
2018-04-25T13:32:22.329Z,10.87
2018-04-25T13:34:50.566Z,12.00
2018-04-25T13:37:26.356Z,12.73
2018-04-25T13:40:24.904Z,9.47
2018-04-25T13:49:25.680Z,9.87
2018-04-25T13:55:25.702Z,11.23
2018-04-25T14:01:25.139Z,13.70
2018-04-25T14:10:25.299Z,8.40
2018-04-25T14:15:54.316Z,6.60
2018-04-25T14:18:27.139Z,10.83
2018-04-25T14:21:25.849Z,10.43
2018-04-25T14:33:25.157Z,14.77
2018-04-25T14:39:25.514Z,6.77
2018-04-25T14:57:25.674Z,8.80
2018-04-25T15:09:25.564Z,9.60
2018-04-25T15:15:25.271Z,10.43
2018-04-25T15:24:25.234Z,9.67
2018-04-25T15:36:25.457Z,8.90
2018-04-25T15:48:24.527Z,11.80
2018-04-25T16:00:25.904Z,8.87
2018-04-25T16:02:57.199Z,8.40
2018-04-25T16:05:25.397Z,8.03
2018-04-25T16:14:25.212Z,7.40
2018-04-25T16:19:56.367Z,8.73
2018-04-25T16:22:27.505Z,5.87
2018-04-25T16:24:56.596Z,9.90
2018-04-25T16:27:25.644Z,6.10
2018-04-25T16:29:53.813Z,4.73
2018-04-25T16:32:22.078Z,10.03
2018-04-25T16:47:15.533Z,4.90
2018-04-25T16:55:46.097Z,5.70
2018-04-25T17:01:28.130Z,8.03
2018-04-25T17:04:26.107Z,8.00
2018-04-25T17:34:25.773Z,8.53
2018-04-25T17:43:25.410Z,8.00
2018-04-25T17:45:53.647Z,7.90
2018-04-25T17:48:22.087Z,16.60
2018-04-25T17:50:50.506Z,9.60
2018-04-25T17:53:26.666Z,6.20
2018-04-25T17:55:54.891Z,7.93
2018-04-25T17:58:23.056Z,7.47
2018-04-25T18:00:51.242Z,7.47
2018-04-25T18:03:19.472Z,6.67
2018-04-25T18:05:47.646Z,7.97
2018-04-25T18:08:29.302Z,12.23
2018-04-25T18:10:57.504Z,8.00
2018-04-25T18:13:27.121Z,10.17
2018-04-25T18:16:26.685Z,10.23
2018-04-25T18:27:55.041Z,13.13
2018-04-25T18:30:27.047Z,12.10
2018-04-25T18:33:09.423Z,12.27
2018-04-25T18:35:38.419Z,14.00
2018-04-25T18:38:26.357Z,9.77
2018-04-25T18:40:54.544Z,10.47
2018-04-25T18:43:23.500Z,11.20
2018-04-25T18:45:51.797Z,12.70
2018-04-25T18:48:27.274Z,11.17
2018-04-25T18:50:56.028Z,13.23
2018-04-25T18:53:24.298Z,7.33
2018-04-25T18:58:52.650Z,13.43
2018-04-25T19:01:20.865Z,13.80
2018-04-25T19:03:49.142Z,12.67
2018-04-25T19:06:18.964Z,14.43
2018-04-25T19:08:47.148Z,7.40
2018-04-25T19:11:16.102Z,15.80
2018-04-25T19:13:44.361Z,16.17
2018-04-25T19:16:26.322Z,12.83
2018-04-25T19:18:55.386Z,12.90
2018-04-25T19:21:24.326Z,11.27
2018-04-25T19:23:52.546Z,13.23
2018-04-25T19:26:21.520Z,10.23
2018-04-25T19:28:49.694Z,13.40
2018-04-25T19:31:28.975Z,15.80
2018-04-25T19:33:57.941Z,11.17
2018-04-25T19:36:26.223Z,12.90
2018-04-25T19:39:25.256Z,9.87
2018-04-25T19:41:53.470Z,12.63
2018-04-25T19:44:21.643Z,12.07
2018-04-25T19:46:49.930Z,13.13
2018-04-25T19:49:18.163Z,12.90
2018-04-25T19:51:46.510Z,11.90
2018-04-25T19:54:15.486Z,12.87
2018-04-25T19:56:43.828Z,10.60
2018-04-25T19:59:27.030Z,9.93
2018-04-25T20:01:55.201Z,11.07
2018-04-25T20:04:23.443Z,8.70
2018-04-25T20:12:54.611Z,9.40
2018-04-25T20:15:22.826Z,9.63
2018-04-25T20:17:51.069Z,10.77
2018-04-25T20:20:20.066Z,10.10
2018-04-25T20:22:48.246Z,10.47
2018-04-25T20:25:17.187Z,8.00
2018-04-25T20:27:45.408Z,11.97
2018-04-25T20:30:14.361Z,8.20
2018-04-25T20:32:42.631Z,11.83
2018-04-25T20:35:27.265Z,12.23
2018-04-25T20:37:55.499Z,10.83
2018-04-25T20:40:27.241Z,9.77
2018-04-25T20:42:55.544Z,9.27
2018-04-25T20:45:24.501Z,11.27
2018-04-25T20:47:52.707Z,10.20
2018-04-25T20:50:20.960Z,11.33
2018-04-25T20:52:49.216Z,11.13
2018-04-25T20:55:27.453Z,14.40
2018-04-25T20:57:55.678Z,9.50
2018-04-25T21:00:27.611Z,10.10
2018-04-25T21:02:56.594Z,11.33
2018-04-25T21:05:24.761Z,8.87
2018-04-25T21:10:53.879Z,10.00
2018-04-25T21:13:23.035Z,10.60
2018-04-25T21:15:51.213Z,12.10
2018-04-25T21:18:19.431Z,12.17
2018-04-25T21:20:48.522Z,9.47
2018-04-25T21:23:27.434Z,9.50
2018-04-25T21:25:55.715Z,12.20
2018-04-25T21:28:25.402Z,8.40
2018-04-25T21:30:53.573Z,9.40
2018-04-25T21:33:21.872Z,11.47
2018-04-25T21:39:56.218Z,11.63
2018-04-25T21:42:26.135Z,12.13
2018-04-25T21:47:55.254Z,33.47
2018-04-25T21:50:27.647Z,41.80
2018-04-25T21:52:56.636Z,35.90
2018-04-25T21:55:25.671Z,23.53
2018-04-25T21:57:53.879Z,25.67
2018-04-25T22:00:29.432Z,38.20
2018-04-25T22:02:57.613Z,48.90
2018-04-25T22:05:27.180Z,37.43
2018-04-25T22:07:55.555Z,28.20
2018-04-25T22:10:23.746Z,19.63
2018-04-25T22:12:51.959Z,17.23
2018-04-25T22:15:20.213Z,10.83
2018-04-25T22:17:49.189Z,11.27
2018-04-25T22:20:17.468Z,13.87
2018-04-25T22:22:45.680Z,15.17
2018-04-25T22:25:13.857Z,14.37
2018-04-25T22:27:42.031Z,10.93
2018-04-25T22:30:10.383Z,7.30
2018-04-25T22:35:40.718Z,15.17
2018-04-25T22:38:09.054Z,11.30
2018-04-25T22:40:37.252Z,11.40
2018-04-25T22:43:05.554Z,12.83
2018-04-25T22:45:34.534Z,7.37
2018-04-25T22:48:26.701Z,7.50
2018-04-25T22:50:55.023Z,8.00
2018-04-25T22:53:23.222Z,6.70
2018-04-25T22:56:06.226Z,12.53
2018-04-25T23:01:34.832Z,12.17
2018-04-25T23:04:03.113Z,12.57
2018-04-25T23:06:31.360Z,7.57
2018-04-25T23:08:59.671Z,13.47
2018-04-25T23:11:29.359Z,6.73
2018-04-25T23:14:25.445Z,6.83
2018-04-25T23:16:53.642Z,11.00
2018-04-25T23:19:21.847Z,10.40
2018-04-25T23:21:50.062Z,14.77
2018-04-25T23:24:26.642Z,7.23
2018-04-25T23:26:54.895Z,9.50
2018-04-25T23:29:23.894Z,12.23
2018-04-25T23:31:52.139Z,13.60
2018-04-25T23:34:20.415Z,7.47
2018-04-25T23:36:49.519Z,7.20
2018-04-25T23:39:18.465Z,7.67
2018-04-25T23:44:48.296Z,6.40
2018-04-25T23:47:16.504Z,8.00
2018-04-25T23:49:44.675Z,7.77
2018-04-25T23:52:13.740Z,9.10
2018-04-25T23:57:42.382Z,7.50
